Time;durP1;ratioP1;P1;durP2;ratioP2;P2;SDS_P1;SDS_P2;PMS_P1;PMS_P2;Temp;Humidity;BMP_temperature;BMP_pressure;BME280_temperature;BME280_humidity;BME280_pressure;Samples;Min_cycle;Max_cycle;Signal;HPM_P1;HPM_P2
2023/05/11 00:00:28;;;;;;;;;;;;;;;16.46;53.80;101439.41;5076261;28;1197;-56
2023/05/11 00:02:54;;;;;;;;;;;;;;;17.36;52.13;101438.94;5077861;28;840;-56
2023/05/11 00:05:19;;;;;;;;;;;;;;;17.26;52.10;101443.28;5076115;28;1066;-56
2023/05/11 00:07:45;;;;;;;;;;;;;;;16.69;53.38;101439.13;5076143;28;1229;-56
2023/05/11 00:10:11;;;;;;;;;;;;;;;16.39;53.76;101445.91;5075752;28;1174;-56
2023/05/11 00:12:36;;;;;;;;;;;;;;;17.18;52.53;101446.50;5075578;28;1973;-57
2023/05/11 00:15:02;;;;;;;;;;;;;;;17.24;51.94;101444.63;5081927;28;1241;-57
2023/05/11 00:17:28;;;;;;;;;;;;;;;16.68;53.47;101445.69;5065825;28;1063;-56
2023/05/11 00:19:53;;;;;;;;;;;;;;;16.38;53.81;101443.41;5075392;28;1086;-56
2023/05/11 00:22:19;;;;;;;;;;;;;;;16.96;53.21;101451.19;5075910;28;1170;-56
2023/05/11 00:24:44;;;;;;;;;;;;;;;17.54;51.40;101443.19;5075690;28;1166;-56
2023/05/11 00:27:10;;;;;;;;;;;;;;;16.77;53.32;101449.63;5068335;28;891;-56
2023/05/11 00:29:35;;;;;;;;;;;;;;;16.43;53.72;101436.06;5069227;28;1123;-56
2023/05/11 00:32:01;;;;;;;;;;;;;;;17.10;52.66;101450.53;5065862;28;1984;-56
2023/05/11 00:34:27;;;;;;;;;;;;;;;17.26;52.10;101446.00;5075524;28;1237;-57
2023/05/11 00:36:52;;;;;;;;;;;;;;;16.68;53.33;101448.44;5076010;28;1162;-58
2023/05/11 00:39:18;;;;;;;;;;;;;;;16.43;53.83;101452.53;5066701;28;1178;-59
2023/05/11 00:41:43;;;;;;;;;;;;;;;17.78;50.94;101447.22;5075879;28;1038;-58
2023/05/11 00:44:09;;;;;;;;;;;;;;;16.94;52.95;101456.97;5057519;28;1039;-59
2023/05/11 00:46:35;;;;;;;;;;;;;;;16.57;53.40;101450.22;5075321;28;1094;-59
2023/05/11 00:49:00;;;;;;;;;;;;;;;16.35;53.87;101447.50;5076288;28;1129;-58
2023/05/11 00:51:26;;;;;;;;;;;;;;;16.88;53.33;101447.00;5078849;28;1918;-59
2023/05/11 00:53:52;;;;;;;;;;;;;;;17.60;51.00;101442.16;5061263;28;1383;-59
2023/05/11 00:56:18;;;;;;;;;;;;;;;16.74;53.30;101441.91;5070827;28;1222;-58
2023/05/11 00:58:44;;;;;;;;;;;;;;;16.49;53.64;101433.38;5092433;28;1082;-57
2023/05/11 01:01:10;;;;;;;;;;;;;;;17.36;51.97;101437.03;5079258;28;1146;-58
2023/05/11 01:03:36;;;;;;;;;;;;;;;17.21;52.04;101431.41;5068210;28;1110;-58
2023/05/11 01:06:09;;;;;;;;;;;;;;;16.67;53.31;101429.47;5078404;28;1078;-58
2023/05/11 01:08:42;;;;;;;;;;;;;;;16.45;53.93;101429.50;5063630;28;1285;-57
2023/05/11 01:11:16;;;;;;;;;;;;;;;16.99;53.15;101436.97;5061255;28;1902;-57
2023/05/11 01:13:43;;;;;;;;;;;;;;;17.45;51.67;101437.34;5079047;28;1158;-58
2023/05/11 01:16:19;;;;;;;;;;;;;;;16.64;53.65;101436.31;5065111;28;1087;-57
2023/05/11 01:19:25;;;;;;;;;;;;;;;16.47;53.76;101435.56;5061055;28;1139;-57
2023/05/11 01:21:51;;;;;;;;;;;;;;;16.33;54.24;101446.13;4981193;28;1265;-57
2023/05/11 01:24:30;;;;;;;;;;;;;;;17.72;51.07;101436.44;4997331;28;1140;-58
2023/05/11 01:27:05;;;;;;;;;;;;;;;16.81;53.15;101446.38;5012555;28;1226;-57
2023/05/11 01:29:42;;;;;;;;;;;;;;;16.38;54.25;101448.91;5051032;28;1157;-57
2023/05/11 01:32:14;;;;;;;;;;;;;;;16.58;54.00;101449.16;5043860;28;1977;-57
2023/05/11 01:34:40;;;;;;;;;;;;;;;17.63;51.25;101444.38;5078746;28;1074;-57
2023/05/11 01:37:24;;;;;;;;;;;;;;;16.74;53.26;101441.91;5077999;28;1189;-56
2023/05/11 01:39:54;;;;;;;;;;;;;;;16.41;54.06;101441.00;5065976;28;1104;-57
2023/05/11 01:42:23;;;;;;;;;;;;;;;16.30;53.98;101441.09;5060332;28;1090;-56
2023/05/11 01:44:49;;;;;;;;;;;;;;;17.61;51.65;101428.13;5043986;28;1233;-58
2023/05/11 01:47:15;;;;;;;;;;;;;;;16.96;52.92;101432.81;5060171;28;1059;-57
2023/05/11 01:49:41;;;;;;;;;;;;;;;16.54;53.50;101433.44;5078370;28;1074;-57
2023/05/11 01:52:07;;;;;;;;;;;;;;;16.29;54.19;101437.53;5078111;28;1925;-56
2023/05/11 01:54:32;;;;;;;;;;;;;;;17.78;51.07;101433.47;5083301;28;1143;-58
2023/05/11 01:56:58;;;;;;;;;;;;;;;17.05;52.57;101431.25;5070622;28;1150;-58
2023/05/11 01:59:27;;;;;;;;;;;;;;;16.56;53.65;101425.78;5043034;28;1147;-57
2023/05/11 02:01:53;;;;;;;;;;;;;;;16.32;54.08;101427.97;5076665;28;1050;-57
2023/05/11 02:04:18;;;;;;;;;;;;;;;17.38;52.20;101432.06;5085174;28;840;-57
2023/05/11 02:06:44;;;;;;;;;;;;;;;17.16;52.42;101423.94;5077569;28;1073;-58
2023/05/11 02:09:10;;;;;;;;;;;;;;;16.61;53.58;101434.06;5059969;28;1190;-57
2023/05/11 02:11:36;;;;;;;;;;;;;;;16.37;53.86;101441.78;5059781;28;1981;-57
2023/05/11 02:14:02;;;;;;;;;;;;;;;16.72;53.72;101441.34;5078200;28;1161;-57
2023/05/11 02:16:28;;;;;;;;;;;;;;;17.56;51.44;101441.03;5047642;28;924;-60
2023/05/11 02:18:53;;;;;;;;;;;;;;;16.75;53.25;101432.56;5059895;28;1409;-58
2023/05/11 02:21:19;;;;;;;;;;;;;;;16.41;54.06;101427.28;5052861;28;1201;-57
2023/05/11 02:23:45;;;;;;;;;;;;;;;16.39;54.05;101429.44;5077839;28;1053;-58
2023/05/11 02:26:11;;;;;;;;;;;;;;;17.82;50.85;101421.94;5077481;28;1197;-59
2023/05/11 02:28:37;;;;;;;;;;;;;;;16.92;52.96;101426.19;5076429;28;908;-59
2023/05/11 02:31:08;;;;;;;;;;;;;;;16.49;53.71;101419.66;5068115;28;1902;-58
2023/05/11 02:33:35;;;;;;;;;;;;;;;16.28;53.92;101415.84;5042828;28;1273;-57
2023/05/11 02:36:01;;;;;;;;;;;;;;;16.72;53.63;101422.13;5042532;28;2091;-57
2023/05/11 02:38:33;;;;;;;;;;;;;;;17.56;51.49;101413.53;5059619;28;1143;-57
2023/05/11 02:41:01;;;;;;;;;;;;;;;16.70;53.48;101427.03;5044770;28;1092;-57
2023/05/11 02:43:29;;;;;;;;;;;;;;;16.36;54.13;101421.72;5042816;28;1327;-57
2023/05/11 02:46:01;;;;;;;;;;;;;;;16.18;54.51;101417.38;5058892;28;1339;-57
2023/05/11 02:48:28;;;;;;;;;;;;;;;17.61;51.39;101413.53;5076838;28;1114;-57
2023/05/11 02:50:54;;;;;;;;;;;;;;;17.00;52.52;101422.97;5043145;28;1906;-57
2023/05/11 02:53:22;;;;;;;;;;;;;;;16.51;53.88;101417.47;5066522;28;1170;-57
2023/05/11 02:55:49;;;;;;;;;;;;;;;16.80;53.65;101422.72;5055850;28;1317;-57
2023/05/11 02:58:15;;;;;;;;;;;;;;;17.62;51.17;101423.44;5058969;28;1166;-57
2023/05/11 03:00:44;;;;;;;;;;;;;;;16.79;53.34;101421.91;5058339;28;1368;-57
2023/05/11 03:03:10;;;;;;;;;;;;;;;16.50;53.68;101429.56;5078821;28;1126;-57
2023/05/11 03:05:36;;;;;;;;;;;;;;;16.25;53.91;101425.41;5076510;28;1175;-57
2023/05/11 03:08:02;;;;;;;;;;;;;;;17.56;51.73;101430.03;5058849;28;1213;-56
2023/05/11 03:10:28;;;;;;;;;;;;;;;17.09;52.25;101437.88;5058135;28;1984;-57
2023/05/11 03:12:54;;;;;;;;;;;;;;;16.59;53.75;101437.09;5058665;28;1328;-57
2023/05/11 03:15:20;;;;;;;;;;;;;;;16.35;53.83;101436.50;5061329;28;1253;-57
2023/05/11 03:17:51;;;;;;;;;;;;;;;17.40;51.85;101443.66;5035681;28;1337;-57
2023/05/11 03:20:17;;;;;;;;;;;;;;;17.14;52.48;101447.25;5029296;28;1630;-58
2023/05/11 03:22:43;;;;;;;;;;;;;;;16.62;53.43;101446.72;5058513;28;1274;-57
2023/05/11 03:25:10;;;;;;;;;;;;;;;16.36;53.89;101451.91;5064493;28;1785;-56
2023/05/11 03:27:35;;;;;;;;;;;;;;;16.85;53.30;101447.50;5052903;28;1316;-56
2023/05/11 03:30:02;;;;;;;;;;;;;;;17.51;51.58;101446.47;5045320;28;1205;-56
2023/05/11 03:32:31;;;;;;;;;;;;;;;16.70;53.48;101443.50;5057613;28;2050;-56
2023/05/11 03:34:57;;;;;;;;;;;;;;;16.43;53.74;101449.78;5076548;28;1042;-57
2023/05/11 03:37:23;;;;;;;;;;;;;;;16.88;53.12;101452.47;5075763;28;1089;-56
2023/05/11 03:39:50;;;;;;;;;;;;;;;17.58;51.09;101444.31;5048123;28;1115;-55
2023/05/11 03:42:16;;;;;;;;;;;;;;;16.83;52.99;101455.16;5081920;28;1039;-53
2023/05/11 03:44:42;;;;;;;;;;;;;;;16.40;54.05;101452.22;5058445;28;1236;-53
2023/05/11 03:47:07;;;;;;;;;;;;;;;16.58;54.06;101454.63;5069539;28;1134;-54
2023/05/11 03:49:35;;;;;;;;;;;;;;;17.61;51.28;101454.78;5060038;28;1129;-54
2023/05/11 03:52:01;;;;;;;;;;;;;;;16.71;53.40;101458.91;5064477;28;1983;-51
2023/05/11 03:54:27;;;;;;;;;;;;;;;16.39;53.90;101462.38;5059539;28;1043;-56
2023/05/11 03:56:54;;;;;;;;;;;;;;;16.21;54.52;101465.44;5076226;28;1066;-54
2023/05/11 03:59:19;;;;;;;;;;;;;;;17.33;52.20;101451.28;5076354;28;1150;-56
2023/05/11 04:01:45;;;;;;;;;;;;;;;16.99;52.79;101459.78;5057938;28;1150;-56
2023/05/11 04:04:11;;;;;;;;;;;;;;;16.50;54.03;101457.03;5059076;28;1150;-55
2023/05/11 04:06:36;;;;;;;;;;;;;;;16.26;54.25;101462.75;5076367;28;1134;-54
2023/05/11 04:09:12;;;;;;;;;;;;;;;16.10;54.71;101458.16;5058230;28;1157;-57
2023/05/11 04:11:38;;;;;;;;;;;;;;;17.52;51.81;101467.38;5058048;28;1910;-56
2023/05/11 04:14:04;;;;;;;;;;;;;;;16.82;53.28;101465.34;5075683;28;1097;-55
2023/05/11 04:16:29;;;;;;;;;;;;;;;16.46;53.93;101472.34;5066670;28;1119;-56
2023/05/11 04:18:55;;;;;;;;;;;;;;;16.20;54.25;101463.75;5062913;28;1122;-56
2023/05/11 04:21:20;;;;;;;;;;;;;;;17.14;52.71;101472.84;5064815;28;1095;-56
2023/05/11 04:23:46;;;;;;;;;;;;;;;17.29;51.98;101469.38;5058540;28;1138;-56
2023/05/11 04:26:12;;;;;;;;;;;;;;;16.60;53.74;101476.34;5061752;28;1199;-56
2023/05/11 04:28:37;;;;;;;;;;;;;;;16.30;54.31;101476.78;5080167;28;817;-57
2023/05/11 04:31:03;;;;;;;;;;;;;;;16.21;54.62;101481.91;5079666;28;1898;-56
2023/05/11 04:33:29;;;;;;;;;;;;;;;17.70;51.05;101475.22;5061746;28;1130;-57
2023/05/11 04:35:54;;;;;;;;;;;;;;;16.88;53.04;101474.47;5061505;28;1417;-56
2023/05/11 04:38:20;;;;;;;;;;;;;;;16.49;53.73;101477.31;5061689;28;1484;-56
2023/05/11 04:40:47;;;;;;;;;;;;;;;16.22;54.47;101478.06;5068563;28;1039;-55
2023/05/11 04:43:13;;;;;;;;;;;;;;;17.30;52.05;101479.28;5061770;28;1302;-57
2023/05/11 04:45:40;;;;;;;;;;;;;;;16.93;52.88;101472.63;5061169;28;1255;-56
2023/05/11 04:48:05;;;;;;;;;;;;;;;16.49;53.74;101482.81;5061466;28;1141;-55
2023/05/11 04:50:31;;;;;;;;;;;;;;;16.28;54.21;101487.19;5065728;28;1976;-56
2023/05/11 04:52:57;;;;;;;;;;;;;;;16.20;54.70;101485.72;5080082;28;1329;-56
2023/05/11 04:55:23;;;;;;;;;;;;;;;17.70;51.20;101488.16;5060680;28;1232;-56
2023/05/11 04:57:49;;;;;;;;;;;;;;;16.83;53.02;101488.13;5061222;28;1223;-53
2023/05/11 05:00:15;;;;;;;;;;;;;;;16.48;54.03;101498.44;5061183;28;1209;-56
2023/05/11 05:02:41;;;;;;;;;;;;;;;17.36;52.33;101493.91;5060942;28;1283;-57
2023/05/11 05:05:07;;;;;;;;;;;;;;;16.82;52.54;101503.78;5086845;28;1107;-55
2023/05/11 05:07:32;;;;;;;;;;;;;;;16.28;52.01;101495.44;5076735;28;1039;-56
2023/05/11 05:09:58;;;;;;;;;;;;;;;16.12;50.89;101497.97;5057184;28;1527;-57
2023/05/11 05:12:23;;;;;;;;;;;;;;;15.97;49.56;101504.06;5058941;28;1985;-57
2023/05/11 05:14:49;;;;;;;;;;;;;;;16.71;51.87;101508.31;5058927;28;1289;-56
2023/05/11 05:17:15;;;;;;;;;;;;;;;16.11;51.34;101503.72;5061309;28;1449;-57
2023/05/11 05:19:40;;;;;;;;;;;;;;;15.93;50.20;101502.06;5075470;28;1139;-57
2023/05/11 05:22:06;;;;;;;;;;;;;;;16.64;51.37;101506.88;5060860;28;1098;-56
2023/05/11 05:24:31;;;;;;;;;;;;;;;16.45;51.47;101514.59;5060590;28;1150;-56
2023/05/11 05:26:57;;;;;;;;;;;;;;;16.05;50.73;101505.56;5052469;28;1089;-53
2023/05/11 05:29:23;;;;;;;;;;;;;;;16.10;50.74;101513.03;5065917;28;1125;-54
2023/05/11 05:31:49;;;;;;;;;;;;;;;16.52;51.24;101516.06;5073347;28;1985;-55
2023/05/11 05:34:16;;;;;;;;;;;;;;;16.11;50.84;101517.44;5073959;28;1131;-56
2023/05/11 05:36:42;;;;;;;;;;;;;;;16.60;50.77;101520.28;5080213;28;1450;-53
2023/05/11 05:39:09;;;;;;;;;;;;;;;16.92;51.56;101516.84;5079378;28;1284;-53
2023/05/11 05:41:35;;;;;;;;;;;;;;;16.40;51.03;101516.19;5086120;28;921;-52
2023/05/11 05:44:03;;;;;;;;;;;;;;;16.12;50.10;101522.66;5063775;28;1286;-54
2023/05/11 05:46:30;;;;;;;;;;;;;;;16.18;50.40;101516.16;5048125;28;1729;-53
2023/05/11 05:48:55;;;;;;;;;;;;;;;16.65;51.23;101523.09;5037002;28;1163;-54
2023/05/11 05:51:22;;;;;;;;;;;;;;;16.15;50.52;101529.56;5036812;28;1910;-52
2023/05/11 05:53:47;;;;;;;;;;;;;;;17.47;50.85;101531.41;5037726;28;1047;-54
2023/05/11 05:56:13;;;;;;;;;;;;;;;16.62;51.17;101531.00;5036932;28;1220;-54
2023/05/11 05:58:39;;;;;;;;;;;;;;;16.23;50.51;101531.88;5037686;28;1023;-55
2023/05/11 06:01:04;;;;;;;;;;;;;;;16.32;50.11;101535.84;5036050;28;1075;-56
2023/05/11 06:03:30;;;;;;;;;;;;;;;16.95;50.68;101527.31;5037586;28;1113;-55
2023/05/11 06:05:56;;;;;;;;;;;;;;;16.36;50.46;101533.41;5035939;28;1113;-56
2023/05/11 06:08:21;;;;;;;;;;;;;;;16.12;49.80;101525.41;5035456;28;1248;-54
2023/05/11 06:10:47;;;;;;;;;;;;;;;17.14;50.54;101529.69;5036961;28;1906;-55
2023/05/11 06:13:13;;;;;;;;;;;;;;;16.48;51.00;101536.03;5032758;28;1206;-56
2023/05/11 06:15:41;;;;;;;;;;;;;;;17.09;50.70;101547.78;5028889;28;1204;-57
2023/05/11 06:18:12;;;;;;;;;;;;;;;17.40;50.86;101545.38;5024383;28;1139;-57
2023/05/11 06:20:40;;;;;;;;;;;;;;;16.77;50.55;101544.91;5036478;28;1332;-56
2023/05/11 06:23:06;;;;;;;;;;;;;;;16.45;49.83;101544.78;5036341;28;1250;-56
2023/05/11 06:25:36;;;;;;;;;;;;;;;17.15;50.81;101545.91;5036098;28;1245;-56
2023/05/11 06:28:02;;;;;;;;;;;;;;;16.59;50.21;101548.81;5035858;28;1186;-56
2023/05/11 06:30:28;;;;;;;;;;;;;;;16.30;49.62;101542.66;5042039;28;1218;-57
2023/05/11 06:32:54;;;;;;;;;;;;;;;16.24;48.28;101541.75;5035756;28;1906;-56
2023/05/11 06:35:21;;;;;;;;;;;;;;;16.12;47.84;101541.03;5035390;28;1256;-57
2023/05/11 06:37:47;;;;;;;;;;;;;;;17.28;49.29;101541.97;5035487;28;1189;-56
2023/05/11 06:40:14;;;;;;;;;;;;;;;16.56;49.73;101543.84;5036301;28;1124;-58
2023/05/11 06:42:41;;;;;;;;;;;;;;;16.25;48.83;101543.41;5039907;28;1449;-58
2023/05/11 06:45:08;;;;;;;;;;;;;;;16.13;48.11;101540.78;5028489;28;1123;-55
2023/05/11 06:47:34;;;;;;;;;;;;;;;16.84;49.53;101542.00;5031132;28;1158;-56
2023/05/11 06:50:00;;;;;;;;;;;;;;;16.58;49.73;101537.00;5015128;28;1219;-57
2023/05/11 06:52:25;;;;;;;;;;;;;;;16.82;50.21;101541.44;5020365;28;1974;-55
2023/05/11 06:54:51;;;;;;;;;;;;;;;17.85;49.66;101542.44;5040055;28;1313;-55
2023/05/11 06:57:16;;;;;;;;;;;;;;;16.81;50.25;101550.75;5014901;28;1204;-54
2023/05/11 06:59:43;;;;;;;;;;;;;;;16.49;49.57;101546.75;5016956;28;1234;-55
2023/05/11 07:02:08;;;;;;;;;;;;;;;16.40;48.62;101542.81;5017556;28;1223;-55
2023/05/11 07:04:34;;;;;;;;;;;;;;;16.23;47.91;101554.66;5022656;28;1210;-55
2023/05/11 07:07:00;;;;;;;;;;;;;;;17.16;49.28;101542.09;5046597;28;872;-56
2023/05/11 07:09:25;;;;;;;;;;;;;;;16.45;49.62;101551.09;5049746;28;1010;-52
2023/05/11 07:11:51;;;;;;;;;;;;;;;17.29;49.99;101554.59;5036708;28;1902;-56
2023/05/11 07:14:17;;;;;;;;;;;;;;;17.33;50.10;101552.97;5022923;28;1370;-56
2023/05/11 07:16:42;;;;;;;;;;;;;;;16.75;49.91;101550.66;5037042;28;1119;-54
2023/05/11 07:19:08;;;;;;;;;;;;;;;16.53;49.04;101556.16;5033554;28;1028;-54
2023/05/11 07:21:34;;;;;;;;;;;;;;;16.92;49.98;101560.78;5020295;28;1075;-57
2023/05/11 07:24:00;;;;;;;;;;;;;;;17.34;50.17;101565.66;5025001;28;1120;-57
2023/05/11 07:26:25;;;;;;;;;;;;;;;16.59;50.38;101568.03;5021486;28;1274;-55
2023/05/11 07:28:51;;;;;;;;;;;;;;;16.47;49.33;101579.13;5036506;28;1131;-54
2023/05/11 07:31:16;;;;;;;;;;;;;;;16.39;48.44;101571.34;5037574;28;1906;-53
2023/05/11 07:33:42;;;;;;;;;;;;;;;16.75;49.48;101575.38;5025490;28;1194;-55
2023/05/11 07:36:07;;;;;;;;;;;;;;;16.69;49.86;101576.41;5034096;28;1135;-51
2023/05/11 07:38:33;;;;;;;;;;;;;;;16.46;48.82;101576.66;5046491;28;980;-54
2023/05/11 07:40:58;;;;;;;;;;;;;;;16.99;49.70;101577.91;5031123;28;1084;-51
2023/05/11 07:43:24;;;;;;;;;;;;;;;16.58;49.93;101574.63;5023583;28;985;-51
2023/05/11 07:45:49;;;;;;;;;;;;;;;16.37;48.92;101574.34;5030121;28;1256;-56
2023/05/11 07:48:15;;;;;;;;;;;;;;;17.17;49.42;101581.41;5073362;28;1051;-55
2023/05/11 07:50:41;;;;;;;;;;;;;;;16.71;49.97;101578.91;5075253;28;1960;-56
2023/05/11 07:53:06;;;;;;;;;;;;;;;16.48;48.94;101574.47;5075938;28;1031;-55
2023/05/11 07:55:32;;;;;;;;;;;;;;;16.79;49.43;101575.72;5067727;28;1019;-54
2023/05/11 07:57:58;;;;;;;;;;;;;;;16.72;49.53;101573.16;5075575;28;1095;-56
2023/05/11 08:00:23;;;;;;;;;;;;;;;16.42;49.24;101582.66;5079299;28;1197;-53
2023/05/11 08:02:48;;;;;;;;;;;;;;;16.86;49.39;101581.03;5079794;28;1020;-53
2023/05/11 08:05:14;;;;;;;;;;;;;;;16.86;49.63;101581.03;5068588;28;1109;-55
2023/05/11 08:07:40;;;;;;;;;;;;;;;16.56;48.90;101588.63;5067823;28;1237;-56
2023/05/11 08:10:05;;;;;;;;;;;;;;;16.38;48.36;101583.41;5079679;28;1252;-55
2023/05/11 08:12:31;;;;;;;;;;;;;;;17.30;48.68;101580.19;5079575;28;1905;-55
2023/05/11 08:14:57;;;;;;;;;;;;;;;16.62;49.04;101586.78;5076787;28;988;-57
2023/05/11 08:17:22;;;;;;;;;;;;;;;17.97;48.55;101595.41;5068949;28;1071;-55
2023/05/11 08:19:48;;;;;;;;;;;;;;;17.72;49.62;101588.53;5066108;28;1193;-55
2023/05/11 08:22:13;;;;;;;;;;;;;;;17.01;49.63;101589.50;5079427;28;1093;-57
2023/05/11 08:24:39;;;;;;;;;;;;;;;16.71;49.00;101579.72;5079362;28;1085;-57
2023/05/11 08:27:04;;;;;;;;;;;;;;;16.54;48.50;101585.28;5079721;28;1071;-56
2023/05/11 08:29:30;;;;;;;;;;;;;;;16.41;48.06;101589.22;5080135;28;1154;-56
2023/05/11 08:31:55;;;;;;;;;;;;;;;17.06;48.92;101589.53;5090909;28;1952;-55
2023/05/11 08:34:21;;;;;;;;;;;;;;;16.94;49.85;101580.59;5061807;28;1242;-56
2023/05/11 08:36:47;;;;;;;;;;;;;;;16.55;49.53;101588.84;5068557;28;1036;-55
2023/05/11 08:39:13;;;;;;;;;;;;;;;16.52;48.49;101581.97;5067626;28;1008;-54
2023/05/11 08:41:38;;;;;;;;;;;;;;;16.35;48.14;101571.00;5089441;28;1030;-54
2023/05/11 08:44:03;;;;;;;;;;;;;;;16.78;48.74;101579.53;5078722;28;1051;-54
2023/05/11 08:46:29;;;;;;;;;;;;;;;16.83;49.60;101576.88;5061142;28;1115;-53
2023/05/11 08:48:55;;;;;;;;;;;;;;;16.47;49.15;101567.34;5075903;28;1054;-54
2023/05/11 08:51:21;;;;;;;;;;;;;;;16.31;48.37;101575.34;5058627;28;1906;-55
2023/05/11 08:53:47;;;;;;;;;;;;;;;17.02;49.10;101563.66;5061690;28;1207;-54
2023/05/11 08:56:12;;;;;;;;;;;;;;;17.04;49.39;101561.50;5078940;28;1162;-54
2023/05/11 08:58:38;;;;;;;;;;;;;;;16.57;49.29;101557.31;5061013;28;1147;-54
2023/05/11 09:01:04;;;;;;;;;;;;;;;16.41;48.55;101564.53;5078967;28;1133;-55
2023/05/11 09:03:30;;;;;;;;;;;;;;;16.49;48.35;101555.00;5060605;28;1125;-54
2023/05/11 09:05:55;;;;;;;;;;;;;;;17.04;49.21;101553.25;5061911;28;1079;-54
2023/05/11 09:08:21;;;;;;;;;;;;;;;16.54;49.40;101557.00;5084265;28;1038;-53
2023/05/11 09:10:46;;;;;;;;;;;;;;;16.58;49.30;101547.19;5061546;28;1981;-55
2023/05/11 09:13:12;;;;;;;;;;;;;;;16.91;49.26;101550.88;5056693;28;1414;-56
2023/05/11 09:15:38;;;;;;;;;;;;;;;16.51;49.04;101547.34;5078113;28;1194;-52
2023/05/11 09:18:03;;;;;;;;;;;;;;;16.42;48.30;101549.72;5062941;28;1298;-55
2023/05/11 09:20:30;;;;;;;;;;;;;;;16.90;48.62;101551.97;5062629;28;1284;-53
2023/05/11 09:22:56;;;;;;;;;;;;;;;17.06;49.24;101548.31;5080381;28;979;-53
2023/05/11 09:25:21;;;;;;;;;;;;;;;16.62;49.19;101552.97;5078557;28;1316;-53
2023/05/11 09:27:47;;;;;;;;;;;;;;;16.72;49.08;101553.94;5060488;28;1261;-52
2023/05/11 09:30:13;;;;;;;;;;;;;;;16.96;49.51;101534.47;5076848;28;1194;-54
2023/05/11 09:32:46;;;;;;;;;;;;;;;16.56;49.01;101539.19;5057582;28;1987;-53
2023/05/11 09:35:22;;;;;;;;;;;;;;;16.33;48.63;101528.44;5056567;28;1219;-55
2023/05/11 09:38:07;;;;;;;;;;;;;;;16.35;47.83;101532.56;5057622;28;1195;-53
2023/05/11 09:40:33;;;;;;;;;;;;;;;17.10;48.79;101535.72;5065349;28;1425;-53
2023/05/11 09:43:00;;;;;;;;;;;;;;;16.68;49.28;101530.00;5082830;28;1002;-54
2023/05/11 09:45:35;;;;;;;;;;;;;;;16.46;48.38;101535.47;5066378;28;1047;-56
2023/05/11 09:48:02;;;;;;;;;;;;;;;16.50;48.64;101539.38;5077952;28;1522;-56
2023/05/11 09:50:30;;;;;;;;;;;;;;;16.80;48.94;101538.09;5068501;28;898;-56
2023/05/11 09:52:56;;;;;;;;;;;;;;;16.50;49.30;101533.88;5072525;28;1910;-56
2023/05/11 09:55:21;;;;;;;;;;;;;;;18.12;47.99;101534.97;5088458;28;1051;-56
2023/05/11 09:57:52;;;;;;;;;;;;;;;16.88;49.78;101540.38;5078515;28;1054;-53
2023/05/11 10:00:17;;;;;;;;;;;;;;;16.55;48.97;101537.53;5079927;28;1005;-49
2023/05/11 10:02:43;;;;;;;;;;;;;;;16.53;48.40;101539.69;5077591;28;1115;-53
2023/05/11 10:05:11;;;;;;;;;;;;;;;17.06;49.32;101540.06;5057533;28;1111;-55
2023/05/11 10:07:38;;;;;;;;;;;;;;;16.61;49.25;101541.16;5072898;28;909;-56
2023/05/11 10:10:04;;;;;;;;;;;;;;;16.50;48.23;101534.72;5061609;28;1194;-50
2023/05/11 10:12:31;;;;;;;;;;;;;;;16.31;47.97;101534.16;5072844;28;1981;-56
2023/05/11 10:15:00;;;;;;;;;;;;;;;16.21;47.15;101532.09;5077014;28;955;-57
2023/05/11 10:17:27;;;;;;;;;;;;;;;17.81;48.34;101536.66;5075253;28;1075;-55
2023/05/11 10:19:53;;;;;;;;;;;;;;;16.90;49.57;101538.22;5067254;28;944;-55
2023/05/11 10:22:18;;;;;;;;;;;;;;;16.56;49.03;101532.84;5066735;28;1257;-55
2023/05/11 10:24:44;;;;;;;;;;;;;;;16.43;48.39;101534.88;5046183;28;1100;-55
2023/05/11 10:27:10;;;;;;;;;;;;;;;16.23;48.11;101529.13;5057601;28;1396;-57
2023/05/11 10:29:36;;;;;;;;;;;;;;;16.23;47.57;101527.22;5070876;28;1068;-56
2023/05/11 10:32:02;;;;;;;;;;;;;;;16.18;47.11;101531.78;5060794;28;1909;-57
2023/05/11 10:34:27;;;;;;;;;;;;;;;17.23;48.49;101526.22;5057082;28;1194;-57
2023/05/11 10:36:53;;;;;;;;;;;;;;;16.56;48.83;101521.88;5058664;28;1226;-55
2023/05/11 10:39:18;;;;;;;;;;;;;;;16.42;48.43;101525.00;5039549;28;1234;-54
2023/05/11 10:41:47;;;;;;;;;;;;;;;16.90;49.01;101530.00;5056666;28;1262;-56
2023/05/11 10:44:18;;;;;;;;;;;;;;;16.75;48.99;101536.94;5073563;28;999;-54
2023/05/11 10:46:53;;;;;;;;;;;;;;;16.38;48.66;101532.09;5060316;28;1246;-58
2023/05/11 10:49:35;;;;;;;;;;;;;;;16.19;48.00;101536.22;5069501;28;1094;-52
2023/05/11 10:52:19;;;;;;;;;;;;;;;17.09;48.39;101523.06;5062634;28;1971;-56
2023/05/11 10:54:45;;;;;;;;;;;;;;;16.37;48.92;101533.16;5078280;28;1142;-54
2023/05/11 10:57:27;;;;;;;;;;;;;;;16.42;48.28;101529.66;5064104;28;1054;-55
2023/05/11 11:00:12;;;;;;;;;;;;;;;16.78;49.42;101530.09;5056321;28;1226;-52
2023/05/11 11:02:37;;;;;;;;;;;;;;;16.46;48.61;101529.97;5060510;28;989;-51
2023/05/11 11:05:06;;;;;;;;;;;;;;;16.81;48.89;101537.00;5069423;28;858;-58
2023/05/11 11:07:31;;;;;;;;;;;;;;;16.88;49.12;101523.91;5085028;28;921;-57
2023/05/11 11:10:05;;;;;;;;;;;;;;;17.24;49.36;101527.88;5038689;28;1265;-55
2023/05/11 11:12:33;;;;;;;;;;;;;;;18.36;48.07;101531.78;5064207;28;1910;-57
2023/05/11 11:14:59;;;;;;;;;;;;;;;17.14;49.76;101532.44;5052778;28;1297;-55
2023/05/11 11:17:30;;;;;;;;;;;;;;;16.77;49.14;101534.78;5056765;28;1285;-55
2023/05/11 11:19:56;;;;;;;;;;;;;;;16.60;48.13;101539.50;5071786;28;1301;-54
2023/05/11 11:22:34;;;;;;;;;;;;;;;16.52;47.47;101528.97;5066277;28;1194;-53
2023/05/11 11:25:00;;;;;;;;;;;;;;;16.60;48.03;101537.56;5076513;28;1093;-54
2023/05/11 11:27:45;;;;;;;;;;;;;;;16.97;49.47;101527.03;5075771;28;1007;-53
2023/05/11 11:30:17;;;;;;;;;;;;;;;16.56;48.66;101527.38;5058979;28;1686;-56
2023/05/11 11:32:43;;;;;;;;;;;;;;;16.43;47.85;101523.09;5084992;28;1982;-53
2023/05/11 11:35:27;;;;;;;;;;;;;;;16.34;47.06;101525.44;5075867;28;1023;-53
2023/05/11 11:38:00;;;;;;;;;;;;;;;16.21;46.78;101532.09;5073917;28;1197;-54
2023/05/11 11:40:36;;;;;;;;;;;;;;;17.13;48.07;101528.88;5065854;28;1182;-53
2023/05/11 11:43:11;;;;;;;;;;;;;;;16.48;48.53;101522.31;5064119;28;1142;-56
2023/05/11 11:45:37;;;;;;;;;;;;;;;16.32;47.94;101527.59;5063903;28;1198;-50
2023/05/11 11:48:12;;;;;;;;;;;;;;;17.45;47.90;101526.16;5061437;28;1111;-58
2023/05/11 11:50:38;;;;;;;;;;;;;;;16.57;48.72;101529.03;5073378;28;1051;-56
2023/05/11 11:53:04;;;;;;;;;;;;;;;16.42;48.01;101515.94;5062701;28;1926;-56
2023/05/11 11:55:46;;;;;;;;;;;;;;;17.30;48.49;101517.78;5068800;28;1127;-57
2023/05/11 11:58:12;;;;;;;;;;;;;;;16.71;48.58;101516.56;5075751;28;1088;-56
2023/05/11 12:00:38;;;;;;;;;;;;;;;17.36;48.92;101514.00;5069868;28;1220;-56
2023/05/11 12:03:03;;;;;;;;;;;;;;;16.93;49.21;101521.25;5037601;28;1254;-54
2023/05/11 12:05:30;;;;;;;;;;;;;;;16.64;48.57;101513.19;5061335;28;1171;-53
2023/05/11 12:07:56;;;;;;;;;;;;;;;17.31;48.92;101505.69;5047396;28;1198;-54
2023/05/11 12:10:21;;;;;;;;;;;;;;;17.05;49.10;101493.63;5072375;28;1233;-57
2023/05/11 12:12:47;;;;;;;;;;;;;;;16.74;48.58;101507.00;5055509;28;1980;-56
2023/05/11 12:15:25;;;;;;;;;;;;;;;16.39;48.30;101499.97;5055643;28;1262;-58
2023/05/11 12:17:51;;;;;;;;;;;;;;;16.33;47.70;101504.56;5055080;28;1226;-53
2023/05/11 12:20:17;;;;;;;;;;;;;;;16.32;47.17;101502.06;5055783;28;1239;-53
2023/05/11 12:22:47;;;;;;;;;;;;;;;16.97;48.00;101505.06;5075667;28;1228;-53
2023/05/11 12:25:16;;;;;;;;;;;;;;;16.85;49.17;101494.22;5075522;28;1119;-54
2023/05/11 12:27:48;;;;;;;;;;;;;;;16.42;48.64;101503.06;5071479;28;1268;-51
2023/05/11 12:30:23;;;;;;;;;;;;;;;17.48;48.50;101511.06;5056519;28;1179;-51
2023/05/11 12:32:49;;;;;;;;;;;;;;;16.70;49.24;101495.69;5069919;28;1906;-53
2023/05/11 12:35:15;;;;;;;;;;;;;;;16.53;48.43;101500.44;5055260;28;1371;-55
2023/05/11 12:37:41;;;;;;;;;;;;;;;17.28;48.74;101497.97;5055003;28;1461;-52
2023/05/11 12:40:09;;;;;;;;;;;;;;;16.74;49.05;101491.34;5074709;28;1400;-56
2023/05/11 12:42:35;;;;;;;;;;;;;;;16.49;48.57;101494.59;5062283;28;1078;-56
2023/05/11 12:45:01;;;;;;;;;;;;;;;16.55;47.99;101490.00;5080337;28;1174;-54
2023/05/11 12:47:26;;;;;;;;;;;;;;;17.27;48.49;101488.06;5058765;28;1226;-54